sensor_id;sensor_type;location;lat;lon;timestamp;P1;durP1;ratioP1;P2;durP2;ratioP2
45420;SDS011;55462;47.042;8.292;2022-09-25T00:01:08;11.38;;;4.95;;
45420;SDS011;55462;47.042;8.292;2022-09-25T00:03:34;5.85;;;5.40;;
45420;SDS011;55462;47.042;8.292;2022-09-25T00:06:00;5.53;;;5.13;;
45420;SDS011;55462;47.042;8.292;2022-09-25T00:08:33;5.43;;;5.03;;
45420;SDS011;55462;47.042;8.292;2022-09-25T00:10:59;5.53;;;4.80;;
45420;SDS011;55462;47.042;8.292;2022-09-25T00:13:30;4.70;;;4.40;;
45420;SDS011;55462;47.042;8.292;2022-09-25T00:15:55;5.40;;;4.93;;
45420;SDS011;55462;47.042;8.292;2022-09-25T00:18:22;4.97;;;4.47;;
45420;SDS011;55462;47.042;8.292;2022-09-25T00:21:09;3.22;;;3.03;;
45420;SDS011;55462;47.042;8.292;2022-09-25T00:23:37;3.83;;;2.70;;
45420;SDS011;55462;47.042;8.292;2022-09-25T00:26:02;2.60;;;2.50;;
45420;SDS011;55462;47.042;8.292;2022-09-25T00:28:30;2.75;;;2.60;;
45420;SDS011;55462;47.042;8.292;2022-09-25T00:30:55;2.75;;;2.60;;
45420;SDS011;55462;47.042;8.292;2022-09-25T00:33:21;3.65;;;2.70;;
45420;SDS011;55462;47.042;8.292;2022-09-25T00:35:46;2.45;;;2.35;;
45420;SDS011;55462;47.042;8.292;2022-09-25T00:38:11;2.58;;;2.47;;
45420;SDS011;55462;47.042;8.292;2022-09-25T00:40:37;2.92;;;2.78;;
45420;SDS011;55462;47.042;8.292;2022-09-25T00:43:02;3.50;;;2.85;;
45420;SDS011;55462;47.042;8.292;2022-09-25T00:45:27;3.10;;;2.80;;
45420;SDS011;55462;47.042;8.292;2022-09-25T00:47:57;2.97;;;2.75;;
45420;SDS011;55462;47.042;8.292;2022-09-25T00:53:11;3.70;;;2.55;;
45420;SDS011;55462;47.042;8.292;2022-09-25T00:55:39;2.90;;;2.70;;
45420;SDS011;55462;47.042;8.292;2022-09-25T00:58:06;7.50;;;3.53;;
45420;SDS011;55462;47.042;8.292;2022-09-25T01:00:32;3.72;;;3.53;;
45420;SDS011;55462;47.042;8.292;2022-09-25T01:02:58;3.80;;;3.55;;
45420;SDS011;55462;47.042;8.292;2022-09-25T01:05:28;3.53;;;3.22;;
45420;SDS011;55462;47.042;8.292;2022-09-25T01:07:56;3.60;;;3.33;;
45420;SDS011;55462;47.042;8.292;2022-09-25T01:10:24;3.10;;;2.90;;
45420;SDS011;55462;47.042;8.292;2022-09-25T01:12:50;3.15;;;2.95;;
45420;SDS011;55462;47.042;8.292;2022-09-25T01:15:17;2.72;;;2.63;;
45420;SDS011;55462;47.042;8.292;2022-09-25T01:17:48;2.78;;;2.25;;
45420;SDS011;55462;47.042;8.292;2022-09-25T01:23:36;3.78;;;2.90;;
45420;SDS011;55462;47.042;8.292;2022-09-25T01:29:16;4.18;;;2.58;;
45420;SDS011;55462;47.042;8.292;2022-09-25T01:37:32;4.25;;;2.83;;
45420;SDS011;55462;47.042;8.292;2022-09-25T01:40:24;2.90;;;2.70;;
45420;SDS011;55462;47.042;8.292;2022-09-25T01:45:59;2.45;;;2.28;;
45420;SDS011;55462;47.042;8.292;2022-09-25T01:48:26;3.83;;;2.65;;
45420;SDS011;55462;47.042;8.292;2022-09-25T01:51:00;3.25;;;3.05;;
45420;SDS011;55462;47.042;8.292;2022-09-25T01:53:29;3.53;;;3.22;;
45420;SDS011;55462;47.042;8.292;2022-09-25T01:55:59;3.10;;;2.90;;
45420;SDS011;55462;47.042;8.292;2022-09-25T01:58:28;4.43;;;3.22;;
45420;SDS011;55462;47.042;8.292;2022-09-25T02:00:57;4.00;;;3.10;;
45420;SDS011;55462;47.042;8.292;2022-09-25T02:03:45;3.38;;;3.10;;
45420;SDS011;55462;47.042;8.292;2022-09-25T02:06:14;3.80;;;3.55;;
45420;SDS011;55462;47.042;8.292;2022-09-25T02:08:45;4.45;;;4.07;;
45420;SDS011;55462;47.042;8.292;2022-09-25T02:11:16;4.30;;;3.90;;
45420;SDS011;55462;47.042;8.292;2022-09-25T02:16:20;3.40;;;3.20;;
45420;SDS011;55462;47.042;8.292;2022-09-25T02:18:47;3.53;;;3.22;;
45420;SDS011;55462;47.042;8.292;2022-09-25T02:27:00;3.30;;;2.95;;
45420;SDS011;55462;47.042;8.292;2022-09-25T02:29:26;4.45;;;3.90;;
45420;SDS011;55462;47.042;8.292;2022-09-25T02:32:03;5.93;;;3.70;;
45420;SDS011;55462;47.042;8.292;2022-09-25T02:34:30;5.82;;;3.70;;
45420;SDS011;55462;47.042;8.292;2022-09-25T02:36:56;3.38;;;3.17;;
45420;SDS011;55462;47.042;8.292;2022-09-25T02:39:22;4.05;;;3.75;;
45420;SDS011;55462;47.042;8.292;2022-09-25T02:47:33;3.40;;;3.20;;
45420;SDS011;55462;47.042;8.292;2022-09-25T02:50:04;6.32;;;3.40;;
45420;SDS011;55462;47.042;8.292;2022-09-25T02:52:58;3.78;;;3.47;;
45420;SDS011;55462;47.042;8.292;2022-09-25T02:58:26;4.63;;;4.10;;
45420;SDS011;55462;47.042;8.292;2022-09-25T03:00:54;5.05;;;4.10;;
45420;SDS011;55462;47.042;8.292;2022-09-25T03:03:21;4.35;;;3.45;;
45420;SDS011;55462;47.042;8.292;2022-09-25T03:05:48;4.40;;;4.05;;
45420;SDS011;55462;47.042;8.292;2022-09-25T03:08:13;6.22;;;5.18;;
45420;SDS011;55462;47.042;8.292;2022-09-25T03:10:58;5.57;;;5.00;;
45420;SDS011;55462;47.042;8.292;2022-09-25T03:13:24;7.20;;;5.28;;
45420;SDS011;55462;47.042;8.292;2022-09-25T03:15:55;6.80;;;4.38;;
45420;SDS011;55462;47.042;8.292;2022-09-25T03:18:22;5.05;;;3.80;;
45420;SDS011;55462;47.042;8.292;2022-09-25T03:20:49;4.47;;;4.07;;
45420;SDS011;55462;47.042;8.292;2022-09-25T03:23:14;7.43;;;6.82;;
45420;SDS011;55462;47.042;8.292;2022-09-25T03:25:39;7.75;;;6.80;;
45420;SDS011;55462;47.042;8.292;2022-09-25T03:28:08;8.32;;;7.53;;
45420;SDS011;55462;47.042;8.292;2022-09-25T03:30:35;9.00;;;8.20;;
45420;SDS011;55462;47.042;8.292;2022-09-25T03:33:03;8.15;;;7.55;;
45420;SDS011;55462;47.042;8.292;2022-09-25T03:35:28;10.27;;;9.48;;
45420;SDS011;55462;47.042;8.292;2022-09-25T03:37:54;10.65;;;9.70;;
45420;SDS011;55462;47.042;8.292;2022-09-25T03:40:19;9.88;;;8.98;;
45420;SDS011;55462;47.042;8.292;2022-09-25T03:42:45;12.15;;;8.77;;
45420;SDS011;55462;47.042;8.292;2022-09-25T03:45:11;6.28;;;5.78;;
45420;SDS011;55462;47.042;8.292;2022-09-25T03:47:36;6.00;;;5.30;;
45420;SDS011;55462;47.042;8.292;2022-09-25T03:50:02;5.75;;;5.35;;
45420;SDS011;55462;47.042;8.292;2022-09-25T03:52:27;6.30;;;5.70;;
45420;SDS011;55462;47.042;8.292;2022-09-25T03:54:53;4.50;;;4.10;;
45420;SDS011;55462;47.042;8.292;2022-09-25T03:57:18;5.15;;;4.28;;
45420;SDS011;55462;47.042;8.292;2022-09-25T03:59:43;5.82;;;5.15;;
45420;SDS011;55462;47.042;8.292;2022-09-25T04:02:09;6.47;;;5.97;;
45420;SDS011;55462;47.042;8.292;2022-09-25T04:04:34;7.18;;;5.90;;
45420;SDS011;55462;47.042;8.292;2022-09-25T04:07:01;6.03;;;5.55;;
45420;SDS011;55462;47.042;8.292;2022-09-25T04:09:27;6.03;;;5.20;;
45420;SDS011;55462;47.042;8.292;2022-09-25T04:11:52;4.60;;;4.20;;
45420;SDS011;55462;47.042;8.292;2022-09-25T04:14:20;4.25;;;3.85;;
45420;SDS011;55462;47.042;8.292;2022-09-25T04:16:45;3.58;;;3.25;;
45420;SDS011;55462;47.042;8.292;2022-09-25T04:19:11;6.07;;;5.47;;
45420;SDS011;55462;47.042;8.292;2022-09-25T04:21:36;11.05;;;6.40;;
45420;SDS011;55462;47.042;8.292;2022-09-25T04:24:01;6.88;;;6.18;;
45420;SDS011;55462;47.042;8.292;2022-09-25T04:26:45;9.07;;;8.00;;
45420;SDS011;55462;47.042;8.292;2022-09-25T04:29:11;7.85;;;7.25;;
45420;SDS011;55462;47.042;8.292;2022-09-25T04:31:39;6.65;;;6.15;;
45420;SDS011;55462;47.042;8.292;2022-09-25T04:34:04;5.60;;;4.70;;
45420;SDS011;55462;47.042;8.292;2022-09-25T04:36:29;6.15;;;5.57;;
45420;SDS011;55462;47.042;8.292;2022-09-25T04:38:55;7.75;;;7.05;;
45420;SDS011;55462;47.042;8.292;2022-09-25T04:41:20;8.45;;;7.75;;
45420;SDS011;55462;47.042;8.292;2022-09-25T04:43:46;9.02;;;8.32;;
45420;SDS011;55462;47.042;8.292;2022-09-25T04:46:12;8.57;;;7.97;;
45420;SDS011;55462;47.042;8.292;2022-09-25T04:48:37;8.45;;;7.72;;
45420;SDS011;55462;47.042;8.292;2022-09-25T04:51:03;7.97;;;7.28;;
45420;SDS011;55462;47.042;8.292;2022-09-25T04:53:30;7.30;;;6.70;;
45420;SDS011;55462;47.042;8.292;2022-09-25T04:56:00;7.20;;;6.68;;
45420;SDS011;55462;47.042;8.292;2022-09-25T04:58:26;6.88;;;6.38;;
45420;SDS011;55462;47.042;8.292;2022-09-25T05:00:52;8.00;;;6.85;;
45420;SDS011;55462;47.042;8.292;2022-09-25T05:03:17;7.40;;;6.75;;
45420;SDS011;55462;47.042;8.292;2022-09-25T05:05:43;8.00;;;7.40;;
45420;SDS011;55462;47.042;8.292;2022-09-25T05:08:08;7.65;;;7.03;;
45420;SDS011;55462;47.042;8.292;2022-09-25T05:10:34;7.53;;;6.25;;
45420;SDS011;55462;47.042;8.292;2022-09-25T05:13:00;7.03;;;6.38;;
45420;SDS011;55462;47.042;8.292;2022-09-25T05:15:27;5.60;;;5.20;;
45420;SDS011;55462;47.042;8.292;2022-09-25T05:18:00;5.82;;;5.28;;
45420;SDS011;55462;47.042;8.292;2022-09-25T05:20:26;5.55;;;5.03;;
45420;SDS011;55462;47.042;8.292;2022-09-25T05:22:53;5.38;;;4.88;;
45420;SDS011;55462;47.042;8.292;2022-09-25T05:25:20;5.30;;;5.00;;
45420;SDS011;55462;47.042;8.292;2022-09-25T05:27:47;6.13;;;5.13;;
45420;SDS011;55462;47.042;8.292;2022-09-25T05:30:12;5.35;;;5.05;;
45420;SDS011;55462;47.042;8.292;2022-09-25T05:32:38;5.25;;;4.93;;
45420;SDS011;55462;47.042;8.292;2022-09-25T05:35:04;5.53;;;5.13;;
45420;SDS011;55462;47.042;8.292;2022-09-25T05:37:29;5.32;;;4.95;;
45420;SDS011;55462;47.042;8.292;2022-09-25T05:39:55;5.03;;;4.63;;
45420;SDS011;55462;47.042;8.292;2022-09-25T05:42:20;6.93;;;6.10;;
45420;SDS011;55462;47.042;8.292;2022-09-25T05:44:45;5.68;;;5.18;;
45420;SDS011;55462;47.042;8.292;2022-09-25T05:47:11;6.55;;;5.90;;
45420;SDS011;55462;47.042;8.292;2022-09-25T05:49:36;5.00;;;4.70;;
45420;SDS011;55462;47.042;8.292;2022-09-25T05:52:01;5.00;;;4.70;;
45420;SDS011;55462;47.042;8.292;2022-09-25T05:54:26;4.38;;;4.07;;
45420;SDS011;55462;47.042;8.292;2022-09-25T05:56:52;4.05;;;3.75;;
45420;SDS011;55462;47.042;8.292;2022-09-25T05:59:17;3.83;;;3.53;;
45420;SDS011;55462;47.042;8.292;2022-09-25T06:01:42;3.72;;;3.53;;
45420;SDS011;55462;47.042;8.292;2022-09-25T06:04:08;3.70;;;3.50;;
45420;SDS011;55462;47.042;8.292;2022-09-25T06:06:34;3.65;;;3.45;;
45420;SDS011;55462;47.042;8.292;2022-09-25T06:08:59;3.83;;;3.53;;
45420;SDS011;55462;47.042;8.292;2022-09-25T06:11:24;4.60;;;3.60;;
45420;SDS011;55462;47.042;8.292;2022-09-25T06:13:51;3.58;;;3.38;;
45420;SDS011;55462;47.042;8.292;2022-09-25T06:16:18;5.82;;;4.80;;
45420;SDS011;55462;47.042;8.292;2022-09-25T06:18:43;6.13;;;5.63;;
45420;SDS011;55462;47.042;8.292;2022-09-25T06:21:10;6.65;;;6.15;;
45420;SDS011;55462;47.042;8.292;2022-09-25T06:23:36;6.30;;;5.80;;
45420;SDS011;55462;47.042;8.292;2022-09-25T06:26:02;7.35;;;6.75;;
45420;SDS011;55462;47.042;8.292;2022-09-25T06:28:29;7.13;;;6.53;;
45420;SDS011;55462;47.042;8.292;2022-09-25T06:30:55;7.65;;;6.97;;
45420;SDS011;55462;47.042;8.292;2022-09-25T06:33:23;7.60;;;7.00;;
45420;SDS011;55462;47.042;8.292;2022-09-25T06:35:49;8.07;;;7.38;;
45420;SDS011;55462;47.042;8.292;2022-09-25T06:38:14;7.72;;;7.13;;
45420;SDS011;55462;47.042;8.292;2022-09-25T06:40:40;7.82;;;7.22;;
45420;SDS011;55462;47.042;8.292;2022-09-25T06:43:08;8.23;;;7.63;;
45420;SDS011;55462;47.042;8.292;2022-09-25T06:45:34;8.07;;;7.30;;
45420;SDS011;55462;47.042;8.292;2022-09-25T06:48:03;7.60;;;6.82;;
45420;SDS011;55462;47.042;8.292;2022-09-25T06:53:16;8.00;;;6.13;;
45420;SDS011;55462;47.042;8.292;2022-09-25T06:55:43;5.63;;;5.22;;
45420;SDS011;55462;47.042;8.292;2022-09-25T06:58:12;5.85;;;5.35;;
45420;SDS011;55462;47.042;8.292;2022-09-25T07:00:39;4.88;;;4.57;;
45420;SDS011;55462;47.042;8.292;2022-09-25T07:03:05;5.38;;;5.00;;
45420;SDS011;55462;47.042;8.292;2022-09-25T07:05:49;4.20;;;3.90;;
45420;SDS011;55462;47.042;8.292;2022-09-25T07:08:15;4.90;;;4.30;;
45420;SDS011;55462;47.042;8.292;2022-09-25T07:10:47;4.40;;;4.10;;
45420;SDS011;55462;47.042;8.292;2022-09-25T07:13:14;4.30;;;3.90;;
45420;SDS011;55462;47.042;8.292;2022-09-25T07:15:40;4.10;;;3.90;;
45420;SDS011;55462;47.042;8.292;2022-09-25T07:18:06;4.60;;;4.30;;
45420;SDS011;55462;47.042;8.292;2022-09-25T07:20:31;4.32;;;4.03;;
45420;SDS011;55462;47.042;8.292;2022-09-25T07:23:00;4.75;;;4.43;;
45420;SDS011;55462;47.042;8.292;2022-09-25T07:25:31;5.20;;;4.70;;
45420;SDS011;55462;47.042;8.292;2022-09-25T07:27:57;5.82;;;5.32;;
45420;SDS011;55462;47.042;8.292;2022-09-25T07:30:23;5.45;;;5.05;;
45420;SDS011;55462;47.042;8.292;2022-09-25T07:32:50;6.72;;;6.18;;
45420;SDS011;55462;47.042;8.292;2022-09-25T07:35:16;5.80;;;5.30;;
45420;SDS011;55462;47.042;8.292;2022-09-25T07:37:42;6.13;;;5.63;;
45420;SDS011;55462;47.042;8.292;2022-09-25T07:40:07;5.22;;;4.82;;
45420;SDS011;55462;47.042;8.292;2022-09-25T07:42:36;5.22;;;4.82;;
45420;SDS011;55462;47.042;8.292;2022-09-25T07:45:02;5.38;;;4.97;;
45420;SDS011;55462;47.042;8.292;2022-09-25T07:47:27;5.35;;;4.90;;
45420;SDS011;55462;47.042;8.292;2022-09-25T07:49:52;6.68;;;5.22;;
45420;SDS011;55462;47.042;8.292;2022-09-25T07:52:18;7.18;;;5.70;;
45420;SDS011;55462;47.042;8.292;2022-09-25T07:54:43;5.30;;;4.88;;
45420;SDS011;55462;47.042;8.292;2022-09-25T07:57:08;5.43;;;4.93;;
45420;SDS011;55462;47.042;8.292;2022-09-25T07:59:34;5.72;;;5.15;;
45420;SDS011;55462;47.042;8.292;2022-09-25T08:01:59;5.65;;;5.22;;
45420;SDS011;55462;47.042;8.292;2022-09-25T08:04:25;5.53;;;5.13;;
45420;SDS011;55462;47.042;8.292;2022-09-25T08:06:50;5.70;;;5.30;;
45420;SDS011;55462;47.042;8.292;2022-09-25T08:09:15;5.50;;;5.10;;
45420;SDS011;55462;47.042;8.292;2022-09-25T08:11:41;5.68;;;5.20;;
45420;SDS011;55462;47.042;8.292;2022-09-25T08:14:06;5.25;;;4.85;;
45420;SDS011;55462;47.042;8.292;2022-09-25T08:16:32;5.78;;;5.38;;
45420;SDS011;55462;47.042;8.292;2022-09-25T08:18:57;5.45;;;5.03;;
45420;SDS011;55462;47.042;8.292;2022-09-25T08:21:22;5.82;;;5.32;;
45420;SDS011;55462;47.042;8.292;2022-09-25T08:23:49;5.97;;;5.47;;
45420;SDS011;55462;47.042;8.292;2022-09-25T08:26:16;10.68;;;5.82;;
45420;SDS011;55462;47.042;8.292;2022-09-25T08:28:42;6.38;;;5.78;;
45420;SDS011;55462;47.042;8.292;2022-09-25T08:31:08;6.65;;;6.03;;
45420;SDS011;55462;47.042;8.292;2022-09-25T08:33:33;6.03;;;5.53;;
45420;SDS011;55462;47.042;8.292;2022-09-25T08:36:02;5.82;;;5.35;;
45420;SDS011;55462;47.042;8.292;2022-09-25T08:38:29;6.55;;;5.97;;
45420;SDS011;55462;47.042;8.292;2022-09-25T08:43:28;6.78;;;6.28;;
45420;SDS011;55462;47.042;8.292;2022-09-25T08:45:55;6.82;;;6.20;;
45420;SDS011;55462;47.042;8.292;2022-09-25T08:48:53;7.03;;;6.32;;
45420;SDS011;55462;47.042;8.292;2022-09-25T08:51:35;6.20;;;5.75;;
45420;SDS011;55462;47.042;8.292;2022-09-25T08:54:04;6.65;;;6.15;;
45420;SDS011;55462;47.042;8.292;2022-09-25T08:56:30;7.10;;;6.60;;
45420;SDS011;55462;47.042;8.292;2022-09-25T08:59:10;7.25;;;6.65;;
45420;SDS011;55462;47.042;8.292;2022-09-25T09:02:10;7.95;;;7.35;;
45420;SDS011;55462;47.042;8.292;2022-09-25T09:04:52;8.32;;;6.28;;
45420;SDS011;55462;47.042;8.292;2022-09-25T09:07:28;5.70;;;5.20;;
45420;SDS011;55462;47.042;8.292;2022-09-25T09:10:06;4.50;;;4.18;;
45420;SDS011;55462;47.042;8.292;2022-09-25T09:15:06;4.78;;;4.25;;
45420;SDS011;55462;47.042;8.292;2022-09-25T09:17:47;3.85;;;3.55;;
45420;SDS011;55462;47.042;8.292;2022-09-25T09:20:14;5.25;;;3.78;;
45420;SDS011;55462;47.042;8.292;2022-09-25T09:22:44;4.53;;;4.22;;
45420;SDS011;55462;47.042;8.292;2022-09-25T09:28:05;3.17;;;2.97;;
45420;SDS011;55462;47.042;8.292;2022-09-25T09:33:34;3.40;;;3.20;;
45420;SDS011;55462;47.042;8.292;2022-09-25T09:41:44;2.58;;;2.38;;
45420;SDS011;55462;47.042;8.292;2022-09-25T09:44:23;3.60;;;2.65;;
45420;SDS011;55462;47.042;8.292;2022-09-25T09:49:39;2.72;;;2.53;;
45420;SDS011;55462;47.042;8.292;2022-09-25T09:52:11;2.50;;;2.40;;
45420;SDS011;55462;47.042;8.292;2022-09-25T09:54:45;2.65;;;2.38;;
45420;SDS011;55462;47.042;8.292;2022-09-25T09:57:24;3.05;;;2.65;;
45420;SDS011;55462;47.042;8.292;2022-09-25T09:59:52;2.80;;;2.60;;
45420;SDS011;55462;47.042;8.292;2022-09-25T10:02:36;3.45;;;3.15;;
45420;SDS011;55462;47.042;8.292;2022-09-25T10:05:14;3.00;;;2.80;;
45420;SDS011;55462;47.042;8.292;2022-09-25T10:07:42;2.47;;;2.38;;
45420;SDS011;55462;47.042;8.292;2022-09-25T10:10:12;2.92;;;2.75;;
45420;SDS011;55462;47.042;8.292;2022-09-25T10:12:38;2.90;;;2.70;;
45420;SDS011;55462;47.042;8.292;2022-09-25T10:15:17;2.90;;;2.60;;
45420;SDS011;55462;47.042;8.292;2022-09-25T10:17:48;3.22;;;3.03;;
45420;SDS011;55462;47.042;8.292;2022-09-25T10:20:16;3.70;;;3.50;;
45420;SDS011;55462;47.042;8.292;2022-09-25T10:22:44;3.58;;;3.38;;
45420;SDS011;55462;47.042;8.292;2022-09-25T10:25:11;3.20;;;2.83;;
45420;SDS011;55462;47.042;8.292;2022-09-25T10:27:40;3.00;;;2.80;;
45420;SDS011;55462;47.042;8.292;2022-09-25T10:38:01;4.90;;;3.78;;
45420;SDS011;55462;47.042;8.292;2022-09-25T10:40:34;5.35;;;4.95;;
45420;SDS011;55462;47.042;8.292;2022-09-25T10:43:22;5.57;;;5.18;;
45420;SDS011;55462;47.042;8.292;2022-09-25T10:45:48;4.80;;;4.50;;
45420;SDS011;55462;47.042;8.292;2022-09-25T10:48:26;5.32;;;4.88;;
45420;SDS011;55462;47.042;8.292;2022-09-25T10:51:13;5.72;;;5.32;;
45420;SDS011;55462;47.042;8.292;2022-09-25T10:53:43;5.38;;;5.07;;
45420;SDS011;55462;47.042;8.292;2022-09-25T10:56:10;5.40;;;5.10;;
45420;SDS011;55462;47.042;8.292;2022-09-25T10:58:39;5.55;;;5.20;;
45420;SDS011;55462;47.042;8.292;2022-09-25T11:01:07;5.30;;;5.00;;
45420;SDS011;55462;47.042;8.292;2022-09-25T11:03:37;5.45;;;4.95;;
45420;SDS011;55462;47.042;8.292;2022-09-25T11:06:16;5.47;;;5.07;;
45420;SDS011;55462;47.042;8.292;2022-09-25T11:08:48;5.63;;;5.28;;
45420;SDS011;55462;47.042;8.292;2022-09-25T11:11:20;5.18;;;4.88;;
45420;SDS011;55462;47.042;8.292;2022-09-25T11:13:50;5.00;;;4.68;;
45420;SDS011;55462;47.042;8.292;2022-09-25T11:16:19;5.43;;;5.07;;
45420;SDS011;55462;47.042;8.292;2022-09-25T11:18:47;5.38;;;4.97;;
45420;SDS011;55462;47.042;8.292;2022-09-25T11:21:18;5.68;;;5.38;;
45420;SDS011;55462;47.042;8.292;2022-09-25T11:26:33;5.88;;;5.47;;
45420;SDS011;55462;47.042;8.292;2022-09-25T11:29:05;6.80;;;6.28;;
45420;SDS011;55462;47.042;8.292;2022-09-25T11:32:06;6.05;;;5.65;;
45420;SDS011;55462;47.042;8.292;2022-09-25T11:49:19;6.88;;;5.68;;
45420;SDS011;55462;47.042;8.292;2022-09-25T11:51:52;6.22;;;5.57;;
45420;SDS011;55462;47.042;8.292;2022-09-25T11:57:55;5.38;;;5.07;;
45420;SDS011;55462;47.042;8.292;2022-09-25T12:06:34;4.70;;;4.40;;
45420;SDS011;55462;47.042;8.292;2022-09-25T12:09:15;4.88;;;4.43;;
45420;SDS011;55462;47.042;8.292;2022-09-25T12:14:37;4.63;;;4.32;;
45420;SDS011;55462;47.042;8.292;2022-09-25T12:17:41;4.75;;;4.32;;
45420;SDS011;55462;47.042;8.292;2022-09-25T12:25:26;5.65;;;5.18;;
45420;SDS011;55462;47.042;8.292;2022-09-25T12:28:23;4.95;;;4.55;;
45420;SDS011;55462;47.042;8.292;2022-09-25T12:38:53;4.38;;;4.05;;
45420;SDS011;55462;47.042;8.292;2022-09-25T12:44:11;3.85;;;3.65;;
45420;SDS011;55462;47.042;8.292;2022-09-25T12:47:02;4.95;;;4.55;;
45420;SDS011;55462;47.042;8.292;2022-09-25T12:49:35;4.30;;;3.47;;
45420;SDS011;55462;47.042;8.292;2022-09-25T12:52:10;3.65;;;3.45;;
45420;SDS011;55462;47.042;8.292;2022-09-25T12:57:13;3.85;;;3.65;;
45420;SDS011;55462;47.042;8.292;2022-09-25T13:00:00;3.58;;;3.38;;
45420;SDS011;55462;47.042;8.292;2022-09-25T13:03:07;3.65;;;3.33;;
45420;SDS011;55462;47.042;8.292;2022-09-25T13:05:42;2.97;;;2.80;;
45420;SDS011;55462;47.042;8.292;2022-09-25T13:10:59;2.78;;;2.67;;
45420;SDS011;55462;47.042;8.292;2022-09-25T13:13:29;3.05;;;2.85;;
45420;SDS011;55462;47.042;8.292;2022-09-25T13:16:00;2.80;;;2.60;;
45420;SDS011;55462;47.042;8.292;2022-09-25T13:18:27;2.92;;;2.72;;
45420;SDS011;55462;47.042;8.292;2022-09-25T13:20:54;3.00;;;2.80;;
45420;SDS011;55462;47.042;8.292;2022-09-25T13:23:34;2.97;;;2.78;;
45420;SDS011;55462;47.042;8.292;2022-09-25T13:26:11;3.00;;;2.78;;
45420;SDS011;55462;47.042;8.292;2022-09-25T13:28:47;3.22;;;3.03;;
45420;SDS011;55462;47.042;8.292;2022-09-25T13:31:23;2.90;;;2.80;;
45420;SDS011;55462;47.042;8.292;2022-09-25T13:36:30;3.40;;;3.10;;
45420;SDS011;55462;47.042;8.292;2022-09-25T13:38:59;3.10;;;2.90;;
45420;SDS011;55462;47.042;8.292;2022-09-25T13:41:46;3.22;;;3.00;;
45420;SDS011;55462;47.042;8.292;2022-09-25T13:52:27;3.50;;;3.20;;
45420;SDS011;55462;47.042;8.292;2022-09-25T13:55:06;3.67;;;3.40;;
45420;SDS011;55462;47.042;8.292;2022-09-25T14:00:18;3.25;;;3.00;;
45420;SDS011;55462;47.042;8.292;2022-09-25T14:02:44;3.35;;;3.15;;
45420;SDS011;55462;47.042;8.292;2022-09-25T14:05:12;6.13;;;3.90;;
45420;SDS011;55462;47.042;8.292;2022-09-25T14:07:50;3.83;;;3.63;;
45420;SDS011;55462;47.042;8.292;2022-09-25T14:10:19;4.60;;;4.20;;
45420;SDS011;55462;47.042;8.292;2022-09-25T14:12:46;4.10;;;3.80;;
45420;SDS011;55462;47.042;8.292;2022-09-25T14:17:41;4.25;;;4.00;;
45420;SDS011;55462;47.042;8.292;2022-09-25T14:20:17;4.65;;;4.20;;
45420;SDS011;55462;47.042;8.292;2022-09-25T14:22:51;3.65;;;3.45;;
45420;SDS011;55462;47.042;8.292;2022-09-25T14:25:31;5.97;;;3.72;;
45420;SDS011;55462;47.042;8.292;2022-09-25T14:28:00;5.10;;;4.60;;
45420;SDS011;55462;47.042;8.292;2022-09-25T14:30:26;4.30;;;3.95;;
45420;SDS011;55462;47.042;8.292;2022-09-25T14:35:45;4.10;;;3.80;;
45420;SDS011;55462;47.042;8.292;2022-09-25T14:41:30;5.20;;;4.70;;
45420;SDS011;55462;47.042;8.292;2022-09-25T14:46:55;3.80;;;3.60;;
45420;SDS011;55462;47.042;8.292;2022-09-25T14:49:22;3.95;;;3.65;;
45420;SDS011;55462;47.042;8.292;2022-09-25T14:51:52;4.10;;;3.80;;
45420;SDS011;55462;47.042;8.292;2022-09-25T14:54:20;4.40;;;4.10;;
45420;SDS011;55462;47.042;8.292;2022-09-25T14:56:48;5.78;;;4.07;;
45420;SDS011;55462;47.042;8.292;2022-09-25T14:59:20;4.10;;;3.80;;
45420;SDS011;55462;47.042;8.292;2022-09-25T15:04:57;4.35;;;4.05;;
45420;SDS011;55462;47.042;8.292;2022-09-25T15:07:44;4.43;;;4.10;;
45420;SDS011;55462;47.042;8.292;2022-09-25T15:13:17;4.53;;;4.22;;
45420;SDS011;55462;47.042;8.292;2022-09-25T15:15:47;5.18;;;4.68;;
45420;SDS011;55462;47.042;8.292;2022-09-25T15:18:41;4.35;;;4.10;;
45420;SDS011;55462;47.042;8.292;2022-09-25T15:21:07;4.57;;;4.18;;
45420;SDS011;55462;47.042;8.292;2022-09-25T15:23:51;4.32;;;3.90;;
45420;SDS011;55462;47.042;8.292;2022-09-25T15:26:17;3.97;;;3.75;;
45420;SDS011;55462;47.042;8.292;2022-09-25T15:28:43;3.28;;;3.08;;
45420;SDS011;55462;47.042;8.292;2022-09-25T15:31:09;3.90;;;3.60;;
45420;SDS011;55462;47.042;8.292;2022-09-25T15:33:36;4.38;;;3.45;;
45420;SDS011;55462;47.042;8.292;2022-09-25T15:36:07;4.03;;;3.55;;
45420;SDS011;55462;47.042;8.292;2022-09-25T15:38:53;3.70;;;3.50;;
45420;SDS011;55462;47.042;8.292;2022-09-25T15:41:24;4.15;;;3.90;;
45420;SDS011;55462;47.042;8.292;2022-09-25T15:43:50;4.30;;;4.00;;
45420;SDS011;55462;47.042;8.292;2022-09-25T15:48:59;9.15;;;4.00;;
45420;SDS011;55462;47.042;8.292;2022-09-25T15:51:28;4.60;;;4.15;;
45420;SDS011;55462;47.042;8.292;2022-09-25T15:53:56;6.15;;;3.90;;
45420;SDS011;55462;47.042;8.292;2022-09-25T15:56:27;3.80;;;3.45;;
45420;SDS011;55462;47.042;8.292;2022-09-25T15:59:19;3.88;;;3.58;;
45420;SDS011;55462;47.042;8.292;2022-09-25T16:01:47;3.67;;;3.38;;
45420;SDS011;55462;47.042;8.292;2022-09-25T16:04:32;3.60;;;3.30;;
45420;SDS011;55462;47.042;8.292;2022-09-25T16:09:58;3.50;;;3.20;;
45420;SDS011;55462;47.042;8.292;2022-09-25T16:18:36;3.10;;;2.90;;
45420;SDS011;55462;47.042;8.292;2022-09-25T16:20:45;2.97;;;2.78;;
45420;SDS011;55462;47.042;8.292;2022-09-25T16:23:20;3.70;;;3.35;;
45420;SDS011;55462;47.042;8.292;2022-09-25T16:25:52;3.63;;;3.40;;
45420;SDS011;55462;47.042;8.292;2022-09-25T16:28:24;3.70;;;3.40;;
45420;SDS011;55462;47.042;8.292;2022-09-25T16:33:28;4.25;;;3.95;;
45420;SDS011;55462;47.042;8.292;2022-09-25T16:36:01;4.55;;;4.15;;
45420;SDS011;55462;47.042;8.292;2022-09-25T16:41:38;4.38;;;4.07;;
45420;SDS011;55462;47.042;8.292;2022-09-25T16:49:15;3.20;;;3.00;;
45420;SDS011;55462;47.042;8.292;2022-09-25T16:51:43;3.72;;;3.42;;
45420;SDS011;55462;47.042;8.292;2022-09-25T16:54:11;4.55;;;4.00;;
45420;SDS011;55462;47.042;8.292;2022-09-25T16:56:37;4.20;;;3.90;;
45420;SDS011;55462;47.042;8.292;2022-09-25T16:59:08;4.00;;;3.70;;
45420;SDS011;55462;47.042;8.292;2022-09-25T17:01:46;3.33;;;3.13;;
45420;SDS011;55462;47.042;8.292;2022-09-25T17:04:13;3.22;;;3.03;;
45420;SDS011;55462;47.042;8.292;2022-09-25T17:06:40;2.95;;;2.75;;
45420;SDS011;55462;47.042;8.292;2022-09-25T17:09:11;2.70;;;2.50;;
45420;SDS011;55462;47.042;8.292;2022-09-25T17:11:38;2.40;;;2.30;;
45420;SDS011;55462;47.042;8.292;2022-09-25T17:14:04;2.10;;;2.00;;
45420;SDS011;55462;47.042;8.292;2022-09-25T17:16:31;1.98;;;1.88;;
45420;SDS011;55462;47.042;8.292;2022-09-25T17:18:59;1.65;;;1.55;;
45420;SDS011;55462;47.042;8.292;2022-09-25T17:21:25;2.38;;;2.28;;
45420;SDS011;55462;47.042;8.292;2022-09-25T17:23:50;1.98;;;1.88;;
45420;SDS011;55462;47.042;8.292;2022-09-25T17:26:22;1.77;;;1.67;;
45420;SDS011;55462;47.042;8.292;2022-09-25T17:28:48;2.00;;;1.90;;
45420;SDS011;55462;47.042;8.292;2022-09-25T17:31:16;1.30;;;1.30;;
45420;SDS011;55462;47.042;8.292;2022-09-25T17:33:46;1.50;;;1.50;;
45420;SDS011;55462;47.042;8.292;2022-09-25T17:36:14;1.77;;;1.67;;
45420;SDS011;55462;47.042;8.292;2022-09-25T17:38:39;3.08;;;2.90;;
45420;SDS011;55462;47.042;8.292;2022-09-25T17:41:06;4.13;;;3.60;;
45420;SDS011;55462;47.042;8.292;2022-09-25T17:43:36;3.72;;;3.38;;
45420;SDS011;55462;47.042;8.292;2022-09-25T17:46:07;5.85;;;5.35;;
45420;SDS011;55462;47.042;8.292;2022-09-25T17:48:33;6.93;;;6.28;;
45420;SDS011;55462;47.042;8.292;2022-09-25T17:51:09;2.78;;;2.58;;
45420;SDS011;55462;47.042;8.292;2022-09-25T17:53:37;3.08;;;2.60;;